Weather at Ouango Fitini Airport

Public forecast

Using degrees Celsius for public forecast. Weather courtesy of forecast.io.

Closest aviation weather report (METAR) to Ouango Fitini Airport

Report is more than 6 hours old.

Closest report is Gaoua Airport, 70.5 nm (130.5 km) NE. Retrieved 2009/09/21 17:00 UTC (13 years ago):

DFOG 211700Z 18004KT 9999 FEW020 FEW040CB NW NE BKN260 30/23

Closest aviation forecast (TAF) to Ouango Fitini Airport

Forecast is more than 12 hours old.

Closest forecast is Bobo Dioulasso Airport, 95.1 nm (176.2 km) N. Retrieved 2022/09/17 12:33 UTC (8 days ago):

TAF DFOO 171100Z 1712/1812 18008KT 9999 SCT016 PROB30 TEMPO 1716/1724 VRB25G35KT 2500 SQ TS SHRA BKN016 FEW030CB